Station Historical Data
Daily Summary for November 5, 2017 Units:  English    Metric   Both
« Previous Day
Next Day »
Daily Weekly Monthly Yearly Custom
  High: Low: Average:
Temperature: 60.6 °F 43.5 °F 54.8 °F
Dew Point: 57.3 °F 37.9 °F 51.1 °F
Humidity: 92% 74% 87%
Wind Speed: 12.0mph 0.0mph 3.6mph
Wind Gust: 20.0mph - -
Wind- - South
Pressure: 30.08 in 29.72 in -
Precipitation: 0.00 in    
Historical Graphs
 
 
Tabular Data for November 5, 2017
Time Temperature Dew Point Pressure Wind Wind Speed Wind Gust Humidity Rainfall Rate (Hourly)
00:04 45.7 °F 37.9 °F 30.03 in Calm   2.0 mph 74% 0.00 in
00:09 45.8 °F 38.0 °F 30.03 in Calm   2.0 mph 74% 0.00 in
00:14 45.9 °F 38.1 °F 30.03 in Calm     74% 0.00 in
00:19 45.7 °F 37.9 °F 30.03 in Calm     74% 0.00 in
00:24 45.7 °F 38.2 °F 30.03 in Calm     75% 0.00 in
00:29 45.7 °F 38.2 °F 30.03 in Calm     75% 0.00 in
00:34 45.7 °F 38.2 °F 30.04 in Calm     75% 0.00 in
00:39 45.7 °F 38.9 °F 30.05 in Calm   3.0 mph 77% 0.00 in
00:44 45.5 °F 39.0 °F 30.08 in NW 3.0 mph 11.0 mph 78% 0.02 in
00:49 45.0 °F 38.9 °F 30.08 in WNW 2.0 mph 6.0 mph 79% 0.03 in
00:54 44.6 °F 39.1 °F 30.06 in NE 2.0 mph 4.0 mph 81% 0.04 in
01:00 44.4 °F 39.2 °F 30.06 in ENE 2.0 mph 4.0 mph 82% 0.12 in
01:05 44.0 °F 39.5 °F 30.06 in ENE 1.0 mph 5.0 mph 84% 0.18 in
01:10 43.7 °F 39.5 °F 30.05 in ENE 1.0 mph 5.0 mph 85% 0.20 in
01:15 43.5 °F 39.6 °F 30.05 in NE 1.0 mph 3.0 mph 86% 0.20 in
01:20 43.5 °F 39.6 °F 30.05 in Calm   3.0 mph 86% 0.21 in
01:25 43.5 °F 39.9 °F 30.05 in Calm     87% 0.22 in
01:30 43.5 °F 40.2 °F 30.04 in Calm   4.0 mph 88% 0.22 in
01:35 43.6 °F 40.3 °F 30.04 in ESE 1.0 mph 4.0 mph 88% 0.22 in
01:45 44.1 °F 41.1 °F 30.02 in SE 2.0 mph 3.0 mph 89% 0.20 in
01:50 44.3 °F 41.3 °F 30.02 in SE 2.0 mph 5.0 mph 89% 0.19 in
01:55 44.4 °F 41.4 °F 30.03 in SSW 2.0 mph 6.0 mph 89% 0.19 in
01:00 44.8 °F 41.8 °F 30.03 in Calm   3.0 mph 89% 0.12 in
01:05 45.1 °F 42.3 °F 30.03 in SSE 1.0 mph 4.0 mph 90% 0.06 in
01:10 45.5 °F 42.4 °F 30.02 in SSE 2.0 mph 6.0 mph 89% 0.12 in
01:15 45.9 °F 43.1 °F 30.02 in SSE 2.0 mph 6.0 mph 90% 0.13 in
01:20 46.3 °F 43.5 °F 30.01 in SSE 2.0 mph 7.0 mph 90% 0.13 in
01:25 46.7 °F 43.9 °F 30.01 in SE 3.0 mph 7.0 mph 90% 0.15 in
01:30 47.1 °F 44.3 °F 30.01 in SSE 2.0 mph 7.0 mph 90% 0.16 in
01:35 47.3 °F 44.5 °F 30.02 in Calm   4.0 mph 90% 0.06 in
01:40 47.5 °F 44.7 °F 30.01 in SSE 1.0 mph 2.0 mph 90% 0.13 in
01:45 47.8 °F 45.0 °F 30.01 in SSE 1.0 mph 3.0 mph 90% 0.24 in
01:50 47.8 °F 45.0 °F 30.01 in Calm   4.0 mph 90% 0.15 in
01:55 48.0 °F 45.2 °F 30.01 in Calm     90% 0.14 in
02:00 48.1 °F 45.3 °F 30.01 in Calm     90% 0.13 in
02:05 48.1 °F 45.3 °F 30.03 in SW 2.0 mph 2.0 mph 90% 0.13 in
02:10 48.3 °F 45.5 °F 30.01 in SSE 2.0 mph 2.0 mph 90% 0.15 in
02:15 48.2 °F 45.4 °F 30.01 in SSE 3.0 mph 5.0 mph 90% 0.18 in
02:20 48.4 °F 45.6 °F 30.02 in SSE 2.0 mph 6.0 mph 90% 0.22 in
02:25 48.6 °F 45.8 °F 30.01 in SSE 3.0 mph 9.0 mph 90% 0.22 in
02:30 48.6 °F 45.8 °F 30.01 in SSE 4.0 mph 10.0 mph 90% 0.24 in
02:35 48.6 °F 45.8 °F 30.01 in SSE 4.0 mph 12.0 mph 90% 0.24 in
02:40 48.6 °F 45.8 °F 30.01 in SSE 3.0 mph 7.0 mph 90% 0.12 in
02:45 48.6 °F 45.8 °F 30.01 in SSE 2.0 mph 7.0 mph 90% 0.13 in
02:50 48.6 °F 45.8 °F 30.01 in SSE 3.0 mph 7.0 mph 90% 0.27 in
02:55 48.6 °F 45.8 °F 30.00 in SSE 1.0 mph 6.0 mph 90% 0.12 in
03:00 48.7 °F 45.9 °F 30.00 in SSE 3.0 mph 6.0 mph 90% 0.12 in
03:05 48.7 °F 45.9 °F 30.00 in SSE 2.0 mph 6.0 mph 90% 0.12 in
03:10 48.8 °F 45.7 °F 30.00 in Calm   6.0 mph 89% 0.10 in
03:15 48.9 °F 45.8 °F 30.00 in Calm   4.0 mph 89% 0.06 in
03:20 48.9 °F 45.8 °F 30.00 in SSE 1.0 mph 3.0 mph 89% 0.06 in
03:25 49.0 °F 45.9 °F 30.00 in SSE 1.0 mph 3.0 mph 89% 0.05 in
03:30 49.0 °F 45.9 °F 29.99 in SSE 1.0 mph 3.0 mph 89% 0.03 in
03:35 49.0 °F 46.2 °F 30.00 in SSE 4.0 mph 5.0 mph 90% 0.03 in
03:40 49.2 °F 46.4 °F 30.00 in South 2.0 mph 5.0 mph 90% 0.02 in
03:45 49.4 °F 46.6 °F 29.99 in SSE 2.0 mph 5.0 mph 90% 0.00 in
03:50 49.6 °F 46.8 °F 29.99 in SSW 2.0 mph 7.0 mph 90% 0.00 in
03:55 49.8 °F 47.0 °F 29.99 in SE 1.0 mph 5.0 mph 90% 0.00 in
04:00 49.9 °F 47.1 °F 29.99 in SSE 2.0 mph 6.0 mph 90% 0.00 in
04:05 50.1 °F 47.3 °F 29.99 in SSE 2.0 mph 6.0 mph 90% 0.00 in
04:10 50.3 °F 47.5 °F 29.99 in SSE 3.0 mph 7.0 mph 90% 0.00 in
04:15 50.4 °F 47.6 °F 29.98 in SSE 3.0 mph 7.0 mph 90% 0.00 in
04:20 50.5 °F 47.7 °F 29.98 in SSE 4.0 mph 8.0 mph 90% 0.01 in
04:25 50.6 °F 47.5 °F 29.98 in SE 2.0 mph 6.0 mph 89% 0.01 in
04:30 50.6 °F 47.5 °F 29.98 in SE 5.0 mph 7.0 mph 89% 0.01 in
04:35 50.8 °F 47.7 °F 29.97 in SE 5.0 mph 9.0 mph 89% 0.01 in
04:40 50.9 °F 47.8 °F 29.98 in South 5.0 mph 8.0 mph 89% 0.01 in
04:45 51.1 °F 47.7 °F 29.97 in SSE 3.0 mph 8.0 mph 88% 0.01 in
04:50 51.2 °F 47.8 °F 29.97 in South 4.0 mph 6.0 mph 88% 0.01 in
04:55 51.2 °F 47.8 °F 29.97 in SE 4.0 mph 8.0 mph 88% 0.01 in
05:00 51.4 °F 48.0 °F 29.97 in SE 5.0 mph 7.0 mph 88% 0.01 in
05:05 51.5 °F 47.8 °F 29.97 in SSE 4.0 mph 11.0 mph 87% 0.01 in
05:10 51.6 °F 47.9 °F 29.97 in South 4.0 mph 11.0 mph 87% 0.01 in
05:15 51.6 °F 47.9 °F 29.97 in SSE 3.0 mph 7.0 mph 87% 0.01 in
05:20 51.6 °F 47.9 °F 29.97 in SSE 3.0 mph 7.0 mph 87% 0.00 in
05:25 51.7 °F 48.0 °F 29.97 in SSE 3.0 mph 8.0 mph 87% 0.00 in
05:30 51.7 °F 48.0 °F 29.96 in South 2.0 mph 7.0 mph 87% 0.00 in
05:34 51.7 °F 48.0 °F 29.96 in SSE 3.0 mph 10.0 mph 87% 0.00 in
05:40 51.7 °F 48.0 °F 29.96 in SSE 3.0 mph 10.0 mph 87% 0.00 in
05:44 51.8 °F 48.1 °F 29.96 in SW 6.0 mph 10.0 mph 87% 0.00 in
05:49 51.8 °F 48.1 °F 29.96 in South 3.0 mph 6.0 mph 87% 0.01 in
05:55 51.7 °F 48.0 °F 29.95 in SSW 1.0 mph 7.0 mph 87% 0.04 in
06:00 51.7 °F 48.0 °F 29.95 in SE 1.0 mph 6.0 mph 87% 0.04 in
06:05 51.7 °F 48.3 °F 29.95 in Calm   7.0 mph 88% 0.04 in
06:10 51.7 °F 48.3 °F 29.95 in SSE 2.0 mph 7.0 mph 88% 0.04 in
06:15 51.7 °F 48.3 °F 29.95 in SSE 3.0 mph 7.0 mph 88% 0.04 in
06:20 51.8 °F 48.4 °F 29.94 in SSE 4.0 mph 7.0 mph 88% 0.04 in
06:25 51.8 °F 48.4 °F 29.94 in SSE 3.0 mph 7.0 mph 88% 0.04 in
06:30 51.9 °F 48.5 °F 29.94 in SSE 4.0 mph 8.0 mph 88% 0.04 in
06:35 51.9 °F 48.5 °F 29.94 in SSE 5.0 mph 6.0 mph 88% 0.04 in
06:40 52.0 °F 48.3 °F 29.94 in SSE 4.0 mph 7.0 mph 87% 0.04 in
06:44 52.2 °F 48.4 °F 29.94 in SSE 3.0 mph 8.0 mph 87% 0.04 in
06:49 52.2 °F 48.4 °F 29.94 in SSE 3.0 mph 7.0 mph 87% 0.03 in
06:55 52.3 °F 48.5 °F 29.94 in South 2.0 mph 6.0 mph 87% 0.00 in
06:59 52.4 °F 48.6 °F 29.94 in South 6.0 mph 7.0 mph 87% 0.00 in
07:05 52.5 °F 48.7 °F 29.93 in South 4.0 mph 9.0 mph 87% 0.00 in
07:10 52.6 °F 48.5 °F 29.93 in SSE 2.0 mph 8.0 mph 86% 0.00 in
07:14 52.7 °F 48.6 °F 29.93 in SSE 4.0 mph 10.0 mph 86% 0.00 in
07:20 52.9 °F 48.8 °F 29.93 in SSE 4.0 mph 11.0 mph 86% 0.00 in
07:25 53.1 °F 49.0 °F 29.93 in South 4.0 mph 11.0 mph 86% 0.00 in
07:30 53.2 °F 48.8 °F 29.93 in South 4.0 mph 10.0 mph 85% 0.00 in
07:35 53.3 °F 48.9 °F 29.92 in SSE 4.0 mph 9.0 mph 85% 0.00 in
07:40 53.5 °F 49.1 °F 29.92 in SSE 4.0 mph 9.0 mph 85% 0.00 in
07:45 53.6 °F 49.2 °F 29.92 in SSE 4.0 mph 9.0 mph 85% 0.00 in
07:49 53.8 °F 49.4 °F 29.92 in SSE 1.0 mph 7.0 mph 85% 0.00 in
07:54 53.9 °F 49.5 °F 29.92 in SSE 6.0 mph 8.0 mph 85% 0.00 in
08:00 54.1 °F 49.7 °F 29.92 in SE 5.0 mph 7.0 mph 85% 0.00 in
08:04 54.1 °F 49.4 °F 29.92 in SSW 4.0 mph 10.0 mph 84% 0.00 in
08:09 54.3 °F 49.6 °F 29.92 in SE 3.0 mph 11.0 mph 84% 0.00 in
08:15 54.2 °F 49.5 °F 29.92 in SE 3.0 mph 9.0 mph 84% 0.00 in
08:20 54.3 °F 49.2 °F 29.92 in SSE 7.0 mph 8.0 mph 83% 0.00 in
08:24 54.3 °F 49.6 °F 29.91 in SSE 5.0 mph 13.0 mph 84% 0.00 in
08:29 54.4 °F 49.3 °F 29.91 in SSE 5.0 mph 13.0 mph 83% 0.00 in
08:34 54.4 °F 49.7 °F 29.92 in SSE 4.0 mph 10.0 mph 84% 0.01 in
08:40 54.2 °F 49.5 °F 29.92 in SSE 2.0 mph 9.0 mph 84% 0.02 in
08:45 54.1 °F 49.7 °F 29.92 in SSE 2.0 mph 7.0 mph 85% 0.03 in
08:50 54.0 °F 49.9 °F 29.91 in SSE 4.0 mph 8.0 mph 86% 0.04 in
08:54 54.0 °F 49.9 °F 29.90 in SSE 6.0 mph 9.0 mph 86% 0.05 in
08:59 54.1 °F 50.0 °F 29.91 in SSW 3.0 mph 11.0 mph 86% 0.05 in
09:04 54.1 °F 50.0 °F 29.90 in SE 4.0 mph 9.0 mph 86% 0.06 in
09:09 54.1 °F 50.0 °F 29.90 in South 2.0 mph 7.0 mph 86% 0.06 in
09:14 54.0 °F 50.2 °F 29.90 in SSE 4.0 mph 7.0 mph 87% 0.06 in
09:20 53.9 °F 50.1 °F 29.89 in SSE 3.0 mph 10.0 mph 87% 0.07 in
09:24 53.9 °F 50.1 °F 29.89 in SSW 3.0 mph 11.0 mph 87% 0.09 in
09:29 53.9 °F 50.1 °F 29.91 in South 4.0 mph 11.0 mph 87% 0.11 in
09:39 54.1 °F 50.6 °F 29.90 in SW 2.0 mph 5.0 mph 88% 0.15 in
09:45 54.5 °F 51.3 °F 29.90 in South 2.0 mph 5.0 mph 89% 0.15 in
09:50 54.8 °F 51.6 °F 29.89 in South 2.0 mph 7.0 mph 89% 0.14 in
09:55 54.9 °F 51.4 °F 29.89 in South 3.0 mph 10.0 mph 88% 0.13 in
09:59 54.9 °F 51.7 °F 29.89 in South 4.0 mph 9.0 mph 89% 0.13 in
10:05 54.9 °F 51.4 °F 29.89 in South 4.0 mph 10.0 mph 88% 0.12 in
10:10 54.9 °F 51.7 °F 29.89 in South 3.0 mph 10.0 mph 89% 0.12 in
10:15 55.0 °F 51.8 °F 29.89 in SSE 10.0 mph 12.0 mph 89% 0.12 in
10:20 55.1 °F 51.6 °F 29.90 in SSE 4.0 mph 10.0 mph 88% 0.11 in
10:25 55.0 °F 51.5 °F 29.89 in South 4.0 mph 11.0 mph 88% 0.10 in
10:30 54.9 °F 51.4 °F 29.89 in SSE 6.0 mph 9.0 mph 88% 0.09 in
10:35 55.0 °F 51.5 °F 29.90 in SW 5.0 mph 10.0 mph 88% 0.07 in
10:39 55.0 °F 51.8 °F 29.90 in South 5.0 mph 13.0 mph 89% 0.05 in
10:44 55.2 °F 52.0 °F 29.89 in South 5.0 mph 13.0 mph 89% 0.05 in
10:49 55.4 °F 52.2 °F 29.89 in South 7.0 mph 18.0 mph 89% 0.06 in
10:55 55.6 °F 52.4 °F 29.89 in South 7.0 mph 18.0 mph 89% 0.07 in
11:00 55.7 °F 52.5 °F 29.89 in South 6.0 mph 12.0 mph 89% 0.07 in
11:04 55.8 °F 52.6 °F 29.88 in SSW 3.0 mph 16.0 mph 89% 0.08 in
11:09 55.9 °F 52.7 °F 29.88 in South 6.0 mph 16.0 mph 89% 0.08 in
11:14 56.0 °F 52.8 °F 29.88 in SE 6.0 mph 14.0 mph 89% 0.08 in
11:19 56.0 °F 52.8 °F 29.88 in SSE 3.0 mph 14.0 mph 89% 0.09 in
11:25 56.1 °F 52.6 °F 29.88 in South 3.0 mph 15.0 mph 88% 0.08 in
11:30 56.2 °F 52.7 °F 29.88 in SSE 7.0 mph 14.0 mph 88% 0.07 in
11:35 56.2 °F 52.7 °F 29.87 in SSE 6.0 mph 13.0 mph 88% 0.06 in
11:40 56.1 °F 52.6 °F 29.86 in SSW 7.0 mph 12.0 mph 88% 0.06 in
11:44 56.1 °F 52.6 °F 29.85 in SSE 6.0 mph 12.0 mph 88% 0.05 in
11:49 56.4 °F 52.9 °F 29.86 in SSE 6.0 mph 13.0 mph 88% 0.04 in
11:54 56.8 °F 53.3 °F 29.85 in South 6.0 mph 16.0 mph 88% 0.03 in
11:59 57.1 °F 53.6 °F 29.85 in South 7.0 mph 16.0 mph 88% 0.03 in
12:05 57.3 °F 53.5 °F 29.86 in SSW 6.0 mph 15.0 mph 87% 0.02 in
12:10 57.4 °F 53.2 °F 29.85 in SW 1.0 mph 12.0 mph 86% 0.02 in
12:14 57.3 °F 53.1 °F 29.85 in SSE 8.0 mph 13.0 mph 86% 0.02 in
12:19 57.3 °F 53.1 °F 29.85 in South 8.0 mph 11.0 mph 86% 0.01 in
12:24 57.3 °F 53.1 °F 29.85 in SSW 6.0 mph 17.0 mph 86% 0.01 in
12:29 57.4 °F 52.9 °F 29.85 in SSW 5.0 mph 15.0 mph 85% 0.01 in
12:34 57.5 °F 53.0 °F 29.85 in South 5.0 mph 14.0 mph 85% 0.00 in
12:39 57.5 °F 53.0 °F 29.85 in SSE 3.0 mph 11.0 mph 85% 0.00 in
12:45 57.5 °F 53.0 °F 29.85 in SSW 6.0 mph 13.0 mph 85% 0.00 in
12:49 57.7 °F 53.2 °F 29.84 in SSW 6.0 mph 16.0 mph 85% 0.00 in
12:54 58.0 °F 53.5 °F 29.84 in South 7.0 mph 20.0 mph 85% 0.00 in
12:59 58.4 °F 53.9 °F 29.84 in South 7.0 mph 20.0 mph 85% 0.00 in
13:05 58.7 °F 53.9 °F 29.83 in South 6.0 mph 14.0 mph 84% 0.00 in
13:09 58.8 °F 53.6 °F 29.83 in SSE 12.0 mph 13.0 mph 83% 0.00 in
13:15 58.9 °F 53.7 °F 29.83 in South 7.0 mph 15.0 mph 83% 0.00 in
13:19 58.9 °F 53.7 °F 29.83 in SSE 3.0 mph 15.0 mph 83% 0.00 in
13:24 59.1 °F 53.9 °F 29.83 in South 6.0 mph 16.0 mph 83% 0.00 in
13:29 59.1 °F 53.6 °F 29.83 in South 6.0 mph 16.0 mph 82% 0.00 in
13:34 59.3 °F 53.8 °F 29.83 in SSW 6.0 mph 14.0 mph 82% 0.00 in
13:39 59.5 °F 54.0 °F 29.83 in South 3.0 mph 9.0 mph 82% 0.00 in
13:45 59.4 °F 53.9 °F 29.83 in SSE 5.0 mph 15.0 mph 82% 0.00 in
13:49 59.3 °F 53.8 °F 29.83 in SSW 7.0 mph 12.0 mph 82% 0.00 in
13:54 59.3 °F 53.8 °F 29.82 in South 5.0 mph 12.0 mph 82% 0.00 in
13:59 59.2 °F 53.7 °F 29.82 in South 6.0 mph 13.0 mph 82% 0.00 in
14:04 59.1 °F 53.6 °F 29.83 in South 6.0 mph 13.0 mph 82% 0.00 in
14:09 59.2 °F 53.7 °F 29.83 in SE 5.0 mph 14.0 mph 82% 0.00 in
14:14 59.2 °F 53.7 °F 29.83 in SSW 7.0 mph 14.0 mph 82% 0.00 in
14:19 59.3 °F 53.8 °F 29.83 in SSE 4.0 mph 15.0 mph 82% 0.00 in
14:29 59.4 °F 53.9 °F 29.83 in South 5.0 mph 11.0 mph 82% 0.00 in
14:34 59.4 °F 53.9 °F 29.82 in South 6.0 mph 14.0 mph 82% 0.01 in
14:39 59.3 °F 54.1 °F 29.83 in South 5.0 mph 14.0 mph 83% 0.01 in
14:44 59.3 °F 54.1 °F 29.82 in SSW 5.0 mph 12.0 mph 83% 0.01 in
14:49 59.2 °F 54.4 °F 29.82 in SSW 5.0 mph 12.0 mph 84% 0.01 in
14:55 59.3 °F 54.5 °F 29.82 in SSW 7.0 mph 11.0 mph 84% 0.01 in
15:04 59.6 °F 54.8 °F 29.81 in South 5.0 mph 14.0 mph 84% 0.01 in
15:09 59.9 °F 54.7 °F 29.81 in South 5.0 mph 14.0 mph 83% 0.01 in
15:14 60.0 °F 54.8 °F 29.82 in SSW 7.0 mph 13.0 mph 83% 0.01 in
15:19 60.1 °F 54.9 °F 29.82 in SSE 3.0 mph 13.0 mph 83% 0.01 in
15:24 60.3 °F 55.1 °F 29.82 in South 4.0 mph 16.0 mph 83% 0.01 in
15:29 60.4 °F 55.2 °F 29.82 in SSW 3.0 mph 10.0 mph 83% 0.01 in
15:34 60.3 °F 54.8 °F 29.81 in South 4.0 mph 8.0 mph 82% 0.00 in
15:39 60.4 °F 54.9 °F 29.81 in South 4.0 mph 12.0 mph 82% 0.00 in
15:44 60.5 °F 55.0 °F 29.81 in South 5.0 mph 13.0 mph 82% 0.00 in
15:49 60.6 °F 55.1 °F 29.81 in South 5.0 mph 13.0 mph 82% 0.00 in
15:54 60.6 °F 55.1 °F 29.81 in South 2.0 mph 11.0 mph 82% 0.00 in
15:59 60.5 °F 55.3 °F 29.80 in South 2.0 mph 11.0 mph 83% 0.00 in
16:05 60.5 °F 55.3 °F 29.80 in South 6.0 mph 9.0 mph 83% 0.00 in
16:09 60.4 °F 55.2 °F 29.80 in South 4.0 mph 9.0 mph 83% 0.01 in
16:14 60.3 °F 55.4 °F 29.80 in South 5.0 mph 11.0 mph 84% 0.01 in
16:19 60.4 °F 55.5 °F 29.80 in SSE 7.0 mph 15.0 mph 84% 0.01 in
16:24 60.4 °F 55.5 °F 29.81 in SSW 6.0 mph 10.0 mph 84% 0.02 in
16:29 60.3 °F 55.4 °F 29.81 in South 3.0 mph 10.0 mph 84% 0.03 in
16:34 60.1 °F 55.6 °F 29.80 in SSW 2.0 mph 12.0 mph 85% 0.04 in
16:39 59.9 °F 55.4 °F 29.81 in SSE 6.0 mph 10.0 mph 85% 0.06 in
16:44 59.8 °F 55.6 °F 29.81 in South 4.0 mph 10.0 mph 86% 0.06 in
16:49 59.6 °F 55.7 °F 29.81 in South 4.0 mph 10.0 mph 87% 0.07 in
16:54 59.4 °F 55.5 °F 29.81 in South 4.0 mph 10.0 mph 87% 0.07 in
16:59 59.3 °F 55.7 °F 29.80 in South 3.0 mph 9.0 mph 88% 0.07 in
17:04 59.2 °F 55.6 °F 29.80 in South 3.0 mph 11.0 mph 88% 0.07 in
17:10 59.2 °F 55.6 °F 29.79 in SSE 3.0 mph 10.0 mph 88% 0.07 in
17:14 59.1 °F 55.5 °F 29.79 in South 3.0 mph 10.0 mph 88% 0.07 in
17:19 59.1 °F 55.9 °F 29.78 in South 6.0 mph 10.0 mph 89% 0.08 in
17:24 59.2 °F 56.0 °F 29.78 in South 3.0 mph 6.0 mph 89% 0.08 in
17:29 59.1 °F 55.9 °F 29.79 in SSW 1.0 mph 4.0 mph 89% 0.08 in
17:34 59.1 °F 55.9 °F 29.80 in SSE 3.0 mph 5.0 mph 89% 0.13 in
17:39 59.1 °F 55.9 °F 29.79 in SE 2.0 mph 6.0 mph 89% 0.12 in
17:44 59.2 °F 56.0 °F 29.79 in South 1.0 mph 7.0 mph 89% 0.13 in
17:49 59.2 °F 56.0 °F 29.79 in South 3.0 mph 8.0 mph 89% 0.14 in
17:54 59.1 °F 56.2 °F 29.80 in South 4.0 mph 9.0 mph 90% 0.17 in
17:59 59.1 °F 56.2 °F 29.81 in South 1.0 mph 10.0 mph 90% 0.27 in
18:04 59.0 °F 56.1 °F 29.80 in SSW 4.0 mph 9.0 mph 90% 0.30 in
18:09 59.0 °F 56.1 °F 29.79 in South 1.0 mph 6.0 mph 90% 0.31 in
18:14 58.9 °F 56.0 °F 29.80 in SSW 6.0 mph 6.0 mph 90% 0.33 in
18:19 58.9 °F 56.0 °F 29.80 in South 3.0 mph 8.0 mph 90% 0.34 in
18:24 59.0 °F 56.1 °F 29.79 in South 4.0 mph 8.0 mph 90% 0.35 in
18:29 59.0 °F 56.1 °F 29.78 in South 7.0 mph 11.0 mph 90% 0.36 in
18:34 59.0 °F 56.4 °F 29.79 in South 3.0 mph 13.0 mph 91% 0.33 in
18:39 59.0 °F 56.4 °F 29.80 in SW 7.0 mph 10.0 mph 91% 0.34 in
18:44 59.0 °F 56.4 °F 29.80 in South 3.0 mph 11.0 mph 91% 0.37 in
18:49 59.1 °F 56.5 °F 29.77 in SSE 5.0 mph 10.0 mph 91% 0.39 in
18:54 59.2 °F 56.6 °F 29.77 in South 5.0 mph 10.0 mph 91% 0.39 in
19:04 59.5 °F 56.9 °F 29.76 in South 6.0 mph 12.0 mph 91% 0.30 in
19:09 59.5 °F 56.9 °F 29.75 in SSE 6.0 mph 12.0 mph 91% 0.30 in
19:14 59.5 °F 56.9 °F 29.75 in SSE 7.0 mph 18.0 mph 91% 0.30 in
19:19 59.4 °F 56.8 °F 29.75 in South 3.0 mph 15.0 mph 91% 0.30 in
19:24 59.3 °F 57.0 °F 29.76 in SSE 8.0 mph 15.0 mph 92% 0.29 in
19:29 59.4 °F 57.1 °F 29.76 in SSE 3.0 mph 16.0 mph 92% 0.29 in
19:34 59.4 °F 57.1 °F 29.75 in SSE 7.0 mph 16.0 mph 92% 0.28 in
19:39 59.5 °F 57.2 °F 29.75 in SE 6.0 mph 13.0 mph 92% 0.27 in
19:44 59.5 °F 57.2 °F 29.75 in SSW 5.0 mph 13.0 mph 92% 0.26 in
19:49 59.4 °F 57.1 °F 29.76 in SSW 4.0 mph 10.0 mph 92% 0.24 in
19:54 59.5 °F 57.2 °F 29.75 in SSE 4.0 mph 8.0 mph 92% 0.23 in
20:04 59.6 °F 57.3 °F 29.77 in SSW 5.0 mph 12.0 mph 92% 0.24 in
20:09 59.6 °F 57.3 °F 29.76 in SSW 4.0 mph 9.0 mph 92% 0.23 in
20:14 59.6 °F 57.3 °F 29.75 in South 4.0 mph 9.0 mph 92% 0.23 in
20:19 59.5 °F 57.2 °F 29.76 in South 3.0 mph 12.0 mph 92% 0.23 in
20:24 59.5 °F 57.2 °F 29.75 in SSE 2.0 mph 12.0 mph 92% 0.25 in
20:29 59.5 °F 57.2 °F 29.75 in South 5.0 mph 12.0 mph 92% 0.25 in
20:34 59.5 °F 57.2 °F 29.74 in SSE 8.0 mph 11.0 mph 92% 0.25 in
20:39 59.5 °F 57.2 °F 29.73 in SSE 7.0 mph 14.0 mph 92% 0.26 in
20:44 59.5 °F 57.2 °F 29.72 in South 7.0 mph 18.0 mph 92% 0.26 in
20:49 59.3 °F 57.0 °F 29.72 in ESE 4.0 mph 13.0 mph 92% 0.26 in
20:54 59.2 °F 56.9 °F 29.72 in South 8.0 mph 13.0 mph 92% 0.26 in
20:59 59.1 °F 56.5 °F 29.73 in South 4.0 mph 11.0 mph 91% 0.24 in
21:04 59.0 °F 56.4 °F 29.73 in South 4.0 mph 11.0 mph 91% 0.23 in
21:09 58.9 °F 56.3 °F 29.74 in South 3.0 mph 10.0 mph 91% 0.22 in
21:14 58.8 °F 56.2 °F 29.74 in South 3.0 mph 11.0 mph 91% 0.20 in
21:19 58.7 °F 56.1 °F 29.75 in South 3.0 mph 11.0 mph 91% 0.18 in
21:24 58.7 °F 56.4 °F 29.76 in SSW 3.0 mph 8.0 mph 92% 0.15 in
21:29 58.7 °F 56.4 °F 29.76 in SSW 3.0 mph 6.0 mph 92% 0.13 in
21:34 58.7 °F 56.4 °F 29.75 in South 3.0 mph 8.0 mph 92% 0.11 in
21:39 58.7 °F 56.1 °F 29.75 in SW 4.0 mph 7.0 mph 91% 0.09 in
21:44 58.7 °F 56.1 °F 29.75 in SSW 5.0 mph 8.0 mph 91% 0.06 in
21:49 58.7 °F 56.1 °F 29.76 in SSW 4.0 mph 9.0 mph 91% 0.04 in
21:54 58.6 °F 56.0 °F 29.76 in South 5.0 mph 9.0 mph 91% 0.02 in
21:59 58.6 °F 56.0 °F 29.76 in SSW 3.0 mph 7.0 mph 91% 0.01 in
22:04 58.6 °F 56.0 °F 29.76 in SSW 5.0 mph 8.0 mph 91% 0.00 in
22:09 58.5 °F 55.9 °F 29.76 in SSW 3.0 mph 10.0 mph 91% 0.00 in
22:20 58.4 °F 55.8 °F 29.76 in SSW 2.0 mph 7.0 mph 91% 0.01 in
22:24 58.4 °F 55.8 °F 29.75 in SSW 1.0 mph 5.0 mph 91% 0.01 in
22:25 58.4 °F 55.8 °F 29.75 in South 1.0 mph 4.0 mph 91% 0.01 in
22:29 58.3 °F 55.7 °F 29.75 in Calm   7.0 mph 91% 0.01 in
22:34 58.4 °F 55.8 °F 29.75 in SSW 1.0 mph 7.0 mph 91% 0.01 in
22:39 58.4 °F 55.8 °F 29.75 in SW 4.0 mph 8.0 mph 91% 0.01 in
22:44 58.4 °F 55.8 °F 29.75 in SW 3.0 mph 7.0 mph 91% 0.01 in
22:49 58.4 °F 55.8 °F 29.75 in WSW 2.0 mph 5.0 mph 91% 0.01 in
22:54 58.4 °F 55.8 °F 29.75 in SSW 2.0 mph 4.0 mph 91% 0.01 in
22:59 58.5 °F 55.9 °F 29.75 in South 1.0 mph 7.0 mph 91% 0.01 in
23:04 58.6 °F 56.0 °F 29.75 in South 3.0 mph 6.0 mph 91% 0.01 in
23:09 58.7 °F 56.1 °F 29.75 in SSW 4.0 mph 7.0 mph 91% 0.01 in
23:14 58.9 °F 56.3 °F 29.75 in SSW 6.0 mph 8.0 mph 91% 0.01 in
23:19 59.1 °F 56.5 °F 29.75 in SSW 3.0 mph 8.0 mph 91% 0.00 in
23:24 59.2 °F 56.3 °F 29.75 in SSW 3.0 mph 9.0 mph 90% 0.01 in
23:29 59.3 °F 56.4 °F 29.75 in SSW 3.0 mph 9.0 mph 90% 0.04 in
23:34 59.3 °F 56.4 °F 29.75 in SSW 3.0 mph 8.0 mph 90% 0.04 in
23:39 59.3 °F 56.4 °F 29.75 in SSW 3.0 mph 7.0 mph 90% 0.04 in
23:44 59.2 °F 56.3 °F 29.74 in SSW 2.0 mph 8.0 mph 90% 0.04 in
23:49 59.3 °F 56.4 °F 29.74 in SSW 3.0 mph 9.0 mph 90% 0.04 in
23:54 59.2 °F 56.3 °F 29.74 in SSW 4.0 mph 9.0 mph 90% 0.05 in
23:59 59.3 °F 56.4 °F 29.74 in SSW 5.0 mph 7.0 mph 90% 0.05 in
Buffalo, New York, USA
Compliments of Weather Underground - 2.5 mb